Time;durP1;ratioP1;P1;durP2;ratioP2;P2;SDS_P1;SDS_P2;PMS_P1;PMS_P2;Temp;Humidity;BMP_temperature;BMP_pressure;BME280_temperature;BME280_humidity;BME280_pressure;Samples;Min_cycle;Max_cycle;Signal;HPM_P1;HPM_P2
2022/10/28 00:02:16;;;;;;;26.38;12.45;;;;;;;9.34;100.00;100158.78;5173436;27;20137;-46
2022/10/28 00:04:42;;;;;;;27.83;11.95;;;;;;;9.36;100.00;100173.75;5173453;27;20046;-46
2022/10/28 00:07:08;;;;;;;34.00;14.50;;;;;;;9.30;100.00;100169.59;5173439;27;20077;-47
2022/10/28 00:09:35;;;;;;;32.70;13.45;;;;;;;9.34;100.00;100153.31;5173594;27;20149;-47
2022/10/28 00:12:02;;;;;;;28.73;14.15;;;;;;;9.22;100.00;100158.69;5173841;27;20046;-45
2022/10/28 00:14:28;;;;;;;34.22;14.70;;;;;;;9.45;100.00;100154.50;5173317;27;20157;-46
2022/10/28 00:16:54;;;;;;;29.80;14.18;;;;;;;9.39;100.00;100153.09;5173458;27;20053;-46
2022/10/28 00:19:20;;;;;;;39.15;14.93;;;;;;;9.54;100.00;100154.44;5173072;27;20042;-46
2022/10/28 00:21:47;;;;;;;34.72;13.55;;;;;;;9.54;100.00;100147.03;5172158;27;20145;-46
2022/10/28 00:24:13;;;;;;;30.27;14.05;;;;;;;9.75;100.00;100149.75;5173152;27;20585;-46
2022/10/28 00:26:42;;;;;;;26.52;13.68;;;;;;;9.61;100.00;100165.66;5172891;27;20046;-46
2022/10/28 00:29:12;;;;;;;28.17;13.23;;;;;;;9.54;100.00;100166.19;5173214;27;20133;-47
2022/10/28 00:31:38;;;;;;;34.53;13.85;;;;;;;9.66;100.00;100152.59;5173245;27;20098;-46
2022/10/28 00:34:06;;;;;;;27.40;13.73;;;;;;;9.68;100.00;100167.88;5173000;27;20050;-46
2022/10/28 00:36:35;;;;;;;28.10;14.40;;;;;;;9.63;100.00;100188.84;5173010;27;20077;-46
2022/10/28 00:39:03;;;;;;;42.72;15.40;;;;;;;9.64;100.00;100174.00;5172830;27;20046;-46
2022/10/28 00:41:33;;;;;;;31.75;13.63;;;;;;;9.53;100.00;100178.28;5172755;27;20081;-46
2022/10/28 00:44:02;;;;;;;28.08;13.98;;;;;;;9.63;100.00;100177.09;5172927;27;20046;-46
2022/10/28 00:46:36;;;;;;;27.60;14.77;;;;;;;9.80;100.00;100182.44;5172879;27;20137;-45
2022/10/28 00:49:09;;;;;;;32.28;13.23;;;;;;;9.58;100.00;100186.28;5173067;27;20100;-46
2022/10/28 00:51:35;;;;;;;27.40;13.80;;;;;;;9.65;100.00;100178.34;5172945;27;20582;-46
2022/10/28 00:54:03;;;;;;;31.75;14.43;;;;;;;9.65;100.00;100180.28;5172763;27;20110;-45
2022/10/28 00:56:33;;;;;;;32.20;14.48;;;;;;;9.68;100.00;100190.56;5172752;27;20042;-45
2022/10/28 00:59:06;;;;;;;33.42;14.80;;;;;;;9.76;100.00;100197.91;5172486;27;20072;-47
2022/10/28 01:01:32;;;;;;;25.73;12.95;;;;;;;9.51;100.00;100185.22;5172495;27;20050;-45
2022/10/28 01:04:00;;;;;;;24.45;13.30;;;;;;;9.46;100.00;100188.16;5172780;27;20050;-46
2022/10/28 01:06:28;;;;;;;27.10;13.23;;;;;;;9.47;100.00;100193.31;5172302;27;20050;-46
2022/10/28 01:08:54;;;;;;;26.80;12.73;;;;;;;9.61;100.00;100193.03;5172355;27;20077;-45
2022/10/28 01:11:39;;;;;;;27.45;13.40;;;;;;;9.55;100.00;100197.09;5172455;27;20424;-47
2022/10/28 01:14:12;;;;;;;;;;;;;;;9.78;100.00;100206.59;5172896;27;20042;-47
2022/10/28 01:16:47;;;;;;;23.48;11.90;;;;;;;9.62;100.00;100209.13;5172565;27;19995;-46
2022/10/28 01:19:44;;;;;;;25.58;12.05;;;;;;;9.17;100.00;100201.53;5172715;27;20053;-47
2022/10/28 01:22:20;;;;;;;25.20;12.43;;;;;;;9.26;100.00;100187.78;5172282;27;20042;-47
2022/10/28 01:25:04;;;;;;;22.10;11.10;;;;;;;9.11;100.00;100171.94;5172232;27;20137;-45
2022/10/28 01:27:57;;;;;;;21.30;10.70;;;;;;;9.35;100.00;100163.91;5172262;27;20054;-47
2022/10/28 01:30:27;;;;;;;22.55;11.35;;;;;;;9.43;100.00;100187.69;5172186;27;20048;-46
2022/10/28 01:33:04;;;;;;;24.42;11.98;;;;;;;9.36;100.00;100192.91;5173521;27;20516;-46
2022/10/28 01:35:37;;;;;;;21.65;12.10;;;;;;;9.39;100.00;100200.41;5175612;27;20051;-48
2022/10/28 01:38:23;;;;;;;25.73;11.87;;;;;;;9.57;100.00;100198.38;5175897;27;20117;-46
2022/10/28 01:40:56;;;;;;;24.98;11.32;;;;;;;9.58;100.00;100223.81;5175987;27;20685;-46
2022/10/28 01:43:27;;;;;;;24.33;11.82;;;;;;;9.65;100.00;100237.78;5176077;27;20127;-45
2022/10/28 01:46:01;;;;;;;19.50;10.80;;;;;;;9.58;100.00;100251.19;5175787;27;20050;-46
2022/10/28 01:48:34;;;;;;;26.05;12.82;;;;;;;9.65;100.00;100246.00;5175584;27;20058;-50
2022/10/28 01:51:07;;;;;;;25.27;11.70;;;;;;;9.64;100.00;100256.16;5175693;27;20424;-49
2022/10/28 01:53:37;;;;;;;20.70;11.30;;;;;;;9.64;100.00;100247.13;5175564;27;20064;-48
2022/10/28 01:56:07;;;;;;;30.73;12.50;;;;;;;9.44;100.00;100245.97;5175445;27;20521;-46
2022/10/28 01:58:36;;;;;;;26.02;11.43;;;;;;;9.52;100.00;100225.16;5175223;27;20485;-48
2022/10/28 02:01:06;;;;;;;27.73;11.55;;;;;;;9.71;100.00;100221.97;5175568;27;20054;-46
2022/10/28 02:03:33;;;;;;;28.00;13.75;;;;;;;9.78;100.00;100223.03;5175231;27;20506;-47
2022/10/28 02:06:03;;;;;;;24.83;13.32;;;;;;;9.80;100.00;100236.41;5175366;27;20073;-47
2022/10/28 02:08:52;;;;;;;28.75;12.23;;;;;;;9.81;100.00;100255.22;5175526;27;20081;-47
2022/10/28 02:11:33;;;;;;;25.17;13.05;;;;;;;9.65;100.00;100255.00;5175187;27;20050;-46
2022/10/28 02:14:09;;;;;;;26.95;13.15;;;;;;;9.60;100.00;100238.00;5175337;27;20517;-48
2022/10/28 02:16:44;;;;;;;27.70;13.55;;;;;;;9.71;100.00;100228.25;5175272;27;20417;-47
2022/10/28 02:19:18;;;;;;;30.48;13.75;;;;;;;9.70;100.00;100231.31;5175105;27;20054;-46
2022/10/28 02:21:55;;;;;;;27.27;12.43;;;;;;;9.65;100.00;100215.88;5175265;27;20473;-47
2022/10/28 02:24:25;;;;;;;26.20;13.13;;;;;;;9.80;100.00;100209.81;5175092;27;20042;-46
2022/10/28 02:26:59;;;;;;;32.33;13.35;;;;;;;9.87;100.00;100212.81;5174979;27;20053;-45
2022/10/28 02:29:34;;;;;;;30.85;13.43;;;;;;;9.88;100.00;100227.31;5174740;27;20054;-46
2022/10/28 02:32:04;;;;;;;24.27;12.90;;;;;;;9.79;100.00;100238.31;5175444;27;20066;-47
2022/10/28 02:34:35;;;;;;;28.17;13.07;;;;;;;9.82;100.00;100226.69;5175087;27;20046;-47
2022/10/28 02:37:05;;;;;;;31.25;14.57;;;;;;;9.84;100.00;100240.88;5174956;27;20098;-46
2022/10/28 02:39:39;;;;;;;30.50;12.85;;;;;;;9.78;100.00;100225.78;5174929;27;20539;-46
2022/10/28 02:42:08;;;;;;;37.25;14.93;;;;;;;9.81;100.00;100216.09;5174745;27;20564;-46
2022/10/28 02:44:38;;;;;;;25.88;13.43;;;;;;;9.81;100.00;100205.13;5174275;27;20046;-46
2022/10/28 02:47:13;;;;;;;32.03;14.35;;;;;;;9.81;100.00;100183.22;5174921;27;20531;-46
2022/10/28 02:49:43;;;;;;;;;;;;;;;9.73;100.00;100189.56;5175052;27;20515;-46
2022/10/28 02:52:10;;;;;;;35.75;14.55;;;;;;;9.40;100.00;100180.16;5174620;27;19922;-47
2022/10/28 02:54:41;;;;;;;33.17;14.65;;;;;;;9.80;100.00;100149.56;5174578;27;20054;-46
2022/10/28 02:57:11;;;;;;;36.10;14.70;;;;;;;9.92;100.00;100153.50;5174336;27;20050;-46
2022/10/28 02:59:37;;;;;;;30.35;14.30;;;;;;;9.96;100.00;100166.16;5174603;27;20068;-47
2022/10/28 03:02:04;;;;;;;35.20;13.40;;;;;;;9.85;100.00;100173.19;5174518;27;20490;-46
2022/10/28 03:04:30;;;;;;;32.08;14.23;;;;;;;9.83;100.00;100159.03;5174255;27;20042;-46
2022/10/28 03:06:57;;;;;;;35.90;14.77;;;;;;;10.03;100.00;100155.50;5174340;27;20504;-45
2022/10/28 03:09:23;;;;;;;29.98;13.50;;;;;;;10.06;100.00;100168.50;5174165;27;20058;-45
2022/10/28 03:11:49;;;;;;;38.97;15.07;;;;;;;10.04;100.00;100170.78;5174373;27;20046;-45
2022/10/28 03:14:16;;;;;;;33.05;14.10;;;;;;;10.02;100.00;100175.78;5174142;27;20552;-47
2022/10/28 03:16:42;;;;;;;33.90;15.65;;;;;;;10.04;100.00;100181.75;5174072;27;20509;-46
2022/10/28 03:19:08;;;;;;;30.13;14.93;;;;;;;10.09;100.00;100172.50;5174005;27;20046;-46
2022/10/28 03:21:34;;;;;;;51.83;15.30;;;;;;;10.11;100.00;100175.72;5174109;27;20110;-46
2022/10/28 03:24:01;;;;;;;46.50;15.20;;;;;;;9.94;100.00;100157.50;5174039;27;20532;-45
2022/10/28 03:26:27;;;;;;;47.70;15.18;;;;;;;10.03;100.00;100141.78;5173856;27;20056;-45
2022/10/28 03:28:54;;;;;;;42.83;15.68;;;;;;;10.08;100.00;100138.03;5173884;27;20082;-46
2022/10/28 03:31:20;;;;;;;39.80;16.48;;;;;;;10.01;100.00;100135.84;5173918;27;20137;-46
2022/10/28 03:33:46;;;;;;;47.65;15.35;;;;;;;10.10;100.00;100125.59;5174143;27;20052;-48
2022/10/28 03:36:12;;;;;;;32.38;15.55;;;;;;;10.04;100.00;100131.63;5173817;27;20050;-46
2022/10/28 03:38:39;;;;;;;43.67;15.13;;;;;;;10.11;100.00;100126.41;5174007;27;20064;-47
2022/10/28 03:41:06;;;;;;;50.20;17.02;;;;;;;10.23;100.00;100118.22;5173630;27;20106;-47
2022/10/28 03:43:32;;;;;;;38.55;14.93;;;;;;;10.12;100.00;100134.25;5173984;27;20046;-50
2022/10/28 03:45:58;;;;;;;49.70;15.95;;;;;;;10.23;100.00;100144.78;5173542;27;20050;-47
2022/10/28 03:48:24;;;;;;;37.35;15.52;;;;;;;10.27;100.00;100145.78;5173692;27;20473;-49
2022/10/28 03:50:52;;;;;;;46.65;16.48;;;;;;;10.30;100.00;100161.53;5173482;27;20054;-47
2022/10/28 03:53:18;;;;;;;39.22;15.10;;;;;;;10.30;100.00;100158.81;5173581;27;20046;-47
2022/10/28 03:55:51;;;;;;;49.78;16.48;;;;;;;10.23;100.00;100166.72;5172806;27;20046;-48
2022/10/28 03:58:18;;;;;;;40.97;14.73;;;;;;;10.22;100.00;100157.69;5172884;27;20050;-46
2022/10/28 04:00:44;;;;;;;43.97;17.17;;;;;;;10.23;100.00;100159.31;5173781;27;20050;-48
2022/10/28 04:03:10;;;;;;;45.13;16.73;;;;;;;10.25;100.00;100157.03;5173739;27;20411;-50
2022/10/28 04:05:36;;;;;;;53.70;16.20;;;;;;;10.25;100.00;100150.75;5173638;27;20054;-46
2022/10/28 04:08:03;;;;;;;50.30;17.52;;;;;;;10.29;100.00;100149.75;5173257;27;20137;-50
2022/10/28 04:10:29;;;;;;;71.20;18.77;;;;;;;10.28;100.00;100139.94;5173583;27;20057;-47
2022/10/28 04:12:59;;;;;;;57.50;18.02;;;;;;;10.26;100.00;100146.88;5173082;27;20050;-48
2022/10/28 04:15:26;;;;;;;45.85;16.52;;;;;;;10.24;100.00;100146.41;5173279;27;20064;-48
2022/10/28 04:17:52;;;;;;;54.38;19.75;;;;;;;10.30;100.00;100134.94;5173194;27;20137;-48
2022/10/28 04:20:18;;;;;;;54.67;19.50;;;;;;;10.38;100.00;100125.00;5173213;27;20054;-48
2022/10/28 04:22:45;;;;;;;57.00;20.60;;;;;;;10.38;100.00;100118.72;5173212;27;20098;-47
2022/10/28 04:25:11;;;;;;;62.40;20.83;;;;;;;10.42;100.00;100116.91;5173187;27;20473;-49
2022/10/28 04:27:37;;;;;;;55.67;20.58;;;;;;;10.40;100.00;100111.78;5173218;27;20081;-47
2022/10/28 04:30:05;;;;;;;55.33;21.08;;;;;;;10.40;100.00;100105.50;5173037;27;20042;-46
2022/10/28 04:32:32;;;;;;;51.83;19.48;;;;;;;10.43;100.00;100094.63;5173133;27;20090;-47
2022/10/28 04:34:58;;;;;;;62.40;20.95;;;;;;;10.52;100.00;100094.53;5172859;27;20417;-46
2022/10/28 04:37:24;;;;;;;57.15;22.73;;;;;;;10.61;100.00;100100.69;5173106;27;20050;-47
2022/10/28 04:39:50;;;;;;;72.55;22.85;;;;;;;10.64;100.00;100102.75;5172760;27;20532;-47
2022/10/28 04:42:17;;;;;;;58.40;21.98;;;;;;;10.67;100.00;100104.03;5172788;27;20054;-47
2022/10/28 04:44:43;;;;;;;61.70;21.65;;;;;;;10.74;100.00;100118.75;5172614;27;20141;-47
2022/10/28 04:47:09;;;;;;;62.15;22.35;;;;;;;10.71;100.00;100119.44;5172686;27;20050;-47
2022/10/28 04:49:36;;;;;;;52.60;19.48;;;;;;;10.67;100.00;100124.03;5172702;27;20576;-47
2022/10/28 04:52:02;;;;;;;59.95;21.67;;;;;;;10.72;100.00;100126.53;5173040;27;20056;-46
2022/10/28 04:54:28;;;;;;;61.33;20.95;;;;;;;10.74;100.00;100137.97;5172815;27;20097;-48
2022/10/28 04:56:55;;;;;;;59.95;22.48;;;;;;;10.74;100.00;100132.47;5172707;27;20042;-47
2022/10/28 04:59:21;;;;;;;51.75;20.75;;;;;;;10.81;100.00;100137.38;5172660;27;20046;-46
2022/10/28 05:01:47;;;;;;;61.50;22.73;;;;;;;10.76;100.00;100135.69;5172318;27;20081;-46
2022/10/28 05:04:13;;;;;;;62.55;22.15;;;;;;;10.46;100.00;100128.78;5172429;27;20046;-46
2022/10/28 05:06:40;;;;;;;69.22;24.48;;;;;;;10.70;100.00;100095.13;5172303;27;20046;-46
2022/10/28 05:09:07;;;;;;;63.38;24.02;;;;;;;10.79;100.00;100102.06;5171956;27;20054;-50
2022/10/28 05:11:33;;;;;;;55.38;21.02;;;;;;;10.87;100.00;100096.81;5172510;27;20048;-48
2022/10/28 05:13:59;;;;;;;47.38;22.42;;;;;;;10.88;100.00;100104.69;5172171;27;20094;-46
2022/10/28 05:16:25;;;;;;;56.45;21.75;;;;;;;10.96;100.00;100119.44;5172090;27;20118;-46
2022/10/28 05:18:53;;;;;;;55.17;21.30;;;;;;;10.80;100.00;100136.59;5172015;27;20050;-46
2022/10/28 05:21:19;;;;;;;54.60;22.95;;;;;;;10.94;100.00;100121.72;5172023;27;20077;-46
2022/10/28 05:23:46;;;;;;;51.67;21.08;;;;;;;10.82;100.00;100133.50;5172098;27;20112;-46
2022/10/28 05:26:12;;;;;;;56.15;22.88;;;;;;;10.93;100.00;100118.19;5172331;27;20054;-46
2022/10/28 05:28:38;;;;;;;52.70;21.60;;;;;;;10.95;100.00;100117.84;5172036;27;20050;-52
2022/10/28 05:31:05;;;;;;;56.10;21.02;;;;;;;11.02;100.00;100115.31;5172319;27;20046;-54
2022/10/28 05:33:32;;;;;;;49.53;21.25;;;;;;;11.12;100.00;100116.78;5171805;27;20062;-53
2022/10/28 05:35:59;;;;;;;56.40;21.48;;;;;;;11.12;100.00;100142.28;5172139;27;20502;-55
2022/10/28 05:38:25;;;;;;;47.75;20.80;;;;;;;11.07;100.00;100142.53;5171730;27;20050;-53
2022/10/28 05:40:52;;;;;;;49.28;18.17;;;;;;;11.13;100.00;100135.66;5171950;27;20519;-54
2022/10/28 05:43:18;;;;;;;49.63;20.05;;;;;;;11.26;100.00;100150.97;5171814;27;20138;-51
2022/10/28 05:45:51;;;;;;;51.22;19.55;;;;;;;11.34;100.00;100162.19;5171853;27;20060;-52
2022/10/28 05:48:17;;;;;;;52.83;19.02;;;;;;;11.40;100.00;100180.00;5171667;27;20054;-51
2022/10/28 05:50:44;;;;;;;48.95;19.50;;;;;;;11.37;100.00;100189.75;5171649;27;20046;-53
2022/10/28 05:53:10;;;;;;;43.20;19.30;;;;;;;11.53;100.00;100195.31;5172025;27;20042;-52
2022/10/28 05:55:36;;;;;;;37.90;17.35;;;;;;;11.27;100.00;100220.41;5171480;27;20061;-53
2022/10/28 05:58:03;;;;;;;42.50;19.20;;;;;;;11.47;100.00;100205.75;5171823;27;20056;-51
2022/10/28 06:00:29;;;;;;;42.42;18.42;;;;;;;11.46;100.00;100206.91;5171523;27;20098;-50
2022/10/28 06:03:02;;;;;;;40.88;18.50;;;;;;;11.48;100.00;100203.78;5171890;27;20078;-52
2022/10/28 06:05:28;;;;;;;47.58;19.98;;;;;;;11.50;100.00;100207.78;5171301;27;20057;-51
2022/10/28 06:07:54;;;;;;;43.60;19.40;;;;;;;11.52;100.00;100221.97;5171443;27;20061;-53
2022/10/28 06:10:20;;;;;;;41.33;18.50;;;;;;;11.67;100.00;100233.41;5171457;27;20052;-52
2022/10/28 06:12:46;;;;;;;50.60;20.73;;;;;;;11.42;100.00;100240.84;5171546;27;20053;-54
2022/10/28 06:15:13;;;;;;;50.33;23.02;;;;;;;11.59;100.00;100232.38;5171324;27;20046;-52
2022/10/28 06:17:40;;;;;;;48.78;22.45;;;;;;;11.61;100.00;100246.56;5171415;27;20125;-54
2022/10/28 06:20:07;;;;;;;57.17;22.40;;;;;;;11.58;100.00;100243.72;5173198;27;20517;-53
2022/10/28 06:22:33;;;;;;;50.72;23.60;;;;;;;11.45;100.00;100235.47;5174896;27;20133;-54
2022/10/28 06:24:59;;;;;;;44.15;20.02;;;;;;;11.67;100.00;100234.19;5175245;27;20521;-52
2022/10/28 06:27:25;;;;;;;52.08;24.95;;;;;;;11.61;100.00;100259.50;5174953;27;20046;-56
2022/10/28 06:29:52;;;;;;;48.55;23.05;;;;;;;11.76;100.00;100254.09;5174683;27;20523;-54
2022/10/28 06:32:19;;;;;;;51.08;21.08;;;;;;;11.56;100.00;100260.53;5174691;27;20057;-51
2022/10/28 06:34:45;;;;;;;57.55;21.27;;;;;;;11.28;100.00;100247.50;5174834;27;20506;-51
2022/10/28 06:37:12;;;;;;;45.03;19.65;;;;;;;11.60;100.00;100233.19;5174613;27;20050;-53
2022/10/28 06:39:39;;;;;;;43.80;20.30;;;;;;;11.35;100.00;100241.44;5174462;27;20420;-49
2022/10/28 06:42:05;;;;;;;39.58;18.38;;;;;;;11.34;100.00;100222.56;5174489;27;20050;-52
2022/10/28 06:44:31;;;;;;;46.65;18.17;;;;;;;11.70;100.00;100224.47;5174679;27;20114;-52
2022/10/28 06:46:58;;;;;;;44.75;20.33;;;;;;;11.62;100.00;100252.84;5174803;27;20053;-55
2022/10/28 06:49:25;;;;;;;39.50;17.42;;;;;;;11.84;100.00;100237.84;5174587;27;20102;-51
2022/10/28 06:51:51;;;;;;;44.90;20.88;;;;;;;11.81;100.00;100272.28;5174899;27;20073;-52
2022/10/28 06:54:17;;;;;;;44.60;19.92;;;;;;;11.85;100.00;100284.22;5174398;27;20089;-52
2022/10/28 06:56:46;;;;;;;41.10;19.95;;;;;;;11.86;100.00;100316.06;5174591;27;20134;-53
2022/10/28 06:59:12;;;;;;;40.72;18.70;;;;;;;11.72;100.00;100315.56;5174165;27;20417;-54
2022/10/28 07:01:38;;;;;;;43.05;20.55;;;;;;;11.86;100.00;100310.56;5174502;27;20081;-55
2022/10/28 07:04:05;;;;;;;53.97;22.50;;;;;;;11.65;100.00;100312.59;5174081;27;20046;-56
2022/10/28 07:06:32;;;;;;;52.25;22.75;;;;;;;11.55;100.00;100292.69;5174131;27;20063;-54
2022/10/28 07:08:58;;;;;;;57.95;28.25;;;;;;;11.77;100.00;100302.41;5174087;27;20432;-52
2022/10/28 07:11:25;;;;;;;68.38;30.27;;;;;;;11.96;100.00;100312.84;5174108;27;20493;-54
2022/10/28 07:13:51;;;;;;;81.38;30.17;;;;;;;11.26;100.00;100309.38;5174220;27;20046;-55
2022/10/28 07:16:17;;;;;;;82.40;31.58;;;;;;;11.30;100.00;100260.91;5173939;27;20420;-55
2022/10/28 07:18:43;;;;;;;98.07;31.45;;;;;;;10.69;100.00;100233.34;5174351;27;20408;-52
2022/10/28 07:21:09;;;;;;;86.75;29.23;;;;;;;10.74;100.00;100186.53;5173733;27;20524;-53
2022/10/28 07:23:36;;;;;;;76.63;28.35;;;;;;;10.87;100.00;100168.94;5174305;27;20052;-55
2022/10/28 07:26:03;;;;;;;84.90;29.48;;;;;;;11.02;100.00;100161.97;5174060;27;20433;-54
2022/10/28 07:28:29;;;;;;;66.80;27.60;;;;;;;11.28;100.00;100169.84;5174419;27;20466;-54
2022/10/28 07:30:59;;;;;;;70.85;30.02;;;;;;;11.60;100.00;100213.97;5173691;27;20572;-55
2022/10/28 07:33:25;;;;;;;75.53;30.15;;;;;;;11.71;100.00;100254.34;5173855;27;20074;-54
2022/10/28 07:35:52;;;;;;;73.88;30.65;;;;;;;11.72;100.00;100299.06;5173639;27;20501;-53
2022/10/28 07:38:18;;;;;;;72.05;29.30;;;;;;;11.37;100.00;100307.00;5173575;27;20050;-55
2022/10/28 07:40:45;;;;;;;80.40;28.27;;;;;;;11.40;100.00;100300.81;5173799;27;20054;-56
2022/10/28 07:43:11;;;;;;;63.35;25.45;;;;;;;11.45;100.00;100303.31;5173857;27;20099;-53
2022/10/28 07:45:38;;;;;;;105.95;29.33;;;;;;;11.52;100.00;100306.28;5174084;27;20133;-54
2022/10/28 07:48:05;;;;;;;72.65;31.67;;;;;;;11.68;100.00;100312.72;5173961;27;20046;-54
2022/10/28 07:50:31;;;;;;;75.13;31.65;;;;;;;11.76;100.00;100322.78;5174116;27;20053;-54
2022/10/28 07:52:59;;;;;;;77.07;32.92;;;;;;;11.83;100.00;100332.38;5173404;27;20408;-51
2022/10/28 07:55:25;;;;;;;79.60;33.97;;;;;;;11.83;100.00;100349.69;5173929;27;20050;-52
2022/10/28 07:57:52;;;;;;;81.68;31.55;;;;;;;11.54;100.00;100323.25;5173199;27;20042;-53
2022/10/28 08:00:18;;;;;;;67.47;31.60;;;;;;;11.67;100.00;100307.56;5173540;27;20054;-53
2022/10/28 08:02:44;;;;;;;64.88;27.55;;;;;;;11.60;100.00;100324.63;5173385;27;20084;-53
2022/10/28 08:05:11;;;;;;;65.97;26.92;;;;;;;11.97;100.00;100335.63;5173183;27;20133;-54
2022/10/28 08:07:37;;;;;;;59.17;26.85;;;;;;;12.25;100.00;100352.97;5173080;27;20509;-54
2022/10/28 08:10:04;;;;;;;57.17;26.45;;;;;;;12.36;100.00;100356.06;5173107;27;20054;-51
2022/10/28 08:12:30;;;;;;;57.88;28.00;;;;;;;12.34;100.00;100363.03;5173451;27;20223;-53
2022/10/28 08:14:57;;;;;;;75.13;27.48;;;;;;;11.90;100.00;100360.94;5173156;27;20129;-53
2022/10/28 08:17:23;;;;;;;59.47;27.60;;;;;;;12.14;100.00;100351.06;5173265;27;20053;-55
2022/10/28 08:19:49;;;;;;;47.78;22.85;;;;;;;12.34;100.00;100366.59;5172834;27;20254;-53
2022/10/28 08:22:15;;;;;;;46.15;24.73;;;;;;;12.31;100.00;100361.78;5173286;27;20057;-55
2022/10/28 08:24:42;;;;;;;64.95;24.42;;;;;;;12.17;100.00;100367.66;5172978;27;20428;-55
2022/10/28 08:27:08;;;;;;;42.58;22.83;;;;;;;12.42;100.00;100362.88;5173098;27;20050;-52
2022/10/28 08:29:34;;;;;;;46.58;22.88;;;;;;;12.34;100.00;100354.78;5172812;27;20133;-56
2022/10/28 08:32:01;;;;;;;45.92;22.50;;;;;;;12.11;100.00;100360.78;5172732;27;20056;-52
2022/10/28 08:34:29;;;;;;;43.10;22.65;;;;;;;12.25;100.00;100369.47;5172881;27;20056;-55
2022/10/28 08:36:56;;;;;;;45.17;22.98;;;;;;;12.31;100.00;100361.78;5172815;27;20050;-53
2022/10/28 08:39:22;;;;;;;49.30;22.48;;;;;;;12.28;100.00;100365.22;5172974;27;20056;-56
2022/10/28 08:41:57;;;;;;;45.42;22.65;;;;;;;12.12;100.00;100361.59;5172317;27;20097;-56
2022/10/28 08:44:45;;;;;;;42.58;21.67;;;;;;;12.15;100.00;100358.16;5172305;27;20054;-56
2022/10/28 08:47:21;;;;;;;45.53;19.75;;;;;;;12.40;100.00;100362.47;5172507;27;20050;-55
2022/10/28 08:49:54;;;;;;;35.67;18.65;;;;;;;12.27;100.00;100357.34;5172783;27;20508;-56
2022/10/28 08:52:27;;;;;;;33.88;18.15;;;;;;;12.42;100.00;100356.59;5172536;27;20056;-54
2022/10/28 08:55:00;;;;;;;33.25;17.83;;;;;;;12.38;100.00;100355.69;5172328;27;20056;-54
2022/10/28 08:57:34;;;;;;;31.55;18.77;;;;;;;12.57;100.00;100344.88;5172435;27;20098;-53
2022/10/28 09:00:04;;;;;;;31.92;16.65;;;;;;;12.51;100.00;100337.22;5172285;27;20109;-55
2022/10/28 09:02:42;;;;;;;36.28;16.73;;;;;;;12.51;100.00;100340.75;5172294;27;20513;-54
2022/10/28 09:05:19;;;;;;;32.88;16.95;;;;;;;12.69;100.00;100341.25;5172261;27;20046;-53
2022/10/28 09:07:46;;;;;;;37.25;16.10;;;;;;;12.67;100.00;100332.56;5172577;27;20493;-55
2022/10/28 09:10:14;;;;;;;27.42;15.30;;;;;;;12.70;100.00;100329.91;5172126;27;20042;-55
2022/10/28 09:12:48;;;;;;;25.92;15.48;;;;;;;12.90;100.00;100330.06;5172100;27;20498;-59
2022/10/28 09:15:18;;;;;;;;;;;;;;;13.07;100.00;100312.41;5172963;27;20050;-56
2022/10/28 09:17:52;;;;;;;31.63;17.02;;;;;;;13.01;100.00;100298.09;5172148;27;20308;-55
2022/10/28 09:20:20;;;;;;;33.03;15.15;;;;;;;13.04;100.00;100305.66;5172395;27;20045;-57
2022/10/28 09:22:55;;;;;;;27.15;14.25;;;;;;;13.13;100.00;100280.72;5172086;27;20137;-56
2022/10/28 09:25:28;;;;;;;31.77;14.98;;;;;;;12.95;100.00;100280.25;5172456;27;20050;-57
2022/10/28 09:28:10;;;;;;;32.00;15.35;;;;;;;12.95;100.00;100283.00;5172014;27;20614;-55
2022/10/28 09:30:48;;;;;;;29.45;14.32;;;;;;;12.85;100.00;100289.00;5171779;27;20053;-58
2022/10/28 09:33:37;;;;;;;43.83;15.05;;;;;;;12.92;100.00;100314.75;5172333;27;20657;-55
2022/10/28 09:36:04;;;;;;;24.35;13.75;;;;;;;13.02;100.00;100287.88;5171880;27;20057;-56
2022/10/28 09:38:33;;;;;;;28.05;14.68;;;;;;;13.00;100.00;100288.25;5172222;27;20051;-56
2022/10/28 09:41:03;;;;;;;30.10;14.55;;;;;;;13.12;100.00;100282.66;5171724;27;20054;-58
2022/10/28 09:43:34;;;;;;;36.75;16.27;;;;;;;13.10;100.00;100276.72;5171744;27;20042;-56
2022/10/28 09:46:04;;;;;;;30.10;14.80;;;;;;;13.21;100.00;100273.41;5171772;27;20050;-55
2022/10/28 09:48:35;;;;;;;28.48;14.73;;;;;;;13.32;100.00;100239.50;5171680;27;20114;-55
2022/10/28 09:51:01;;;;;;;30.42;15.50;;;;;;;13.29;100.00;100214.63;5171816;27;20509;-56
2022/10/28 09:53:38;;;;;;;27.35;14.88;;;;;;;13.29;100.00;100253.97;5171946;27;20050;-56
2022/10/28 09:56:05;;;;;;;32.65;14.75;;;;;;;13.01;100.00;100240.28;5175554;27;20046;-56
2022/10/28 09:58:32;;;;;;;38.13;15.48;;;;;;;12.84;100.00;100255.19;5175202;27;20520;-55
2022/10/28 10:00:59;;;;;;;32.80;15.90;;;;;;;13.15;100.00;100275.63;5175755;27;20046;-53
2022/10/28 10:03:25;;;;;;;32.97;15.80;;;;;;;13.21;100.00;100254.16;5175239;27;20050;-53
2022/10/28 10:05:56;;;;;;;30.95;14.38;;;;;;;13.18;100.00;100245.44;5175521;27;20046;-52
2022/10/28 10:08:23;;;;;;;26.63;15.02;;;;;;;13.46;100.00;100205.19;5175199;27;20050;-51
2022/10/28 10:10:52;;;;;;;28.10;14.57;;;;;;;13.43;100.00;100187.44;5175163;27;20050;-53
2022/10/28 10:13:24;;;;;;;32.40;14.43;;;;;;;13.45;100.00;100159.53;5175403;27;20050;-52
2022/10/28 10:15:54;;;;;;;24.30;13.80;;;;;;;13.50;100.00;100157.28;5175111;27;20046;-51
2022/10/28 10:18:24;;;;;;;27.88;14.05;;;;;;;13.36;100.00;100162.47;5174910;27;20042;-51
2022/10/28 10:20:54;;;;;;;31.55;14.82;;;;;;;13.32;100.00;100169.84;5174619;27;20046;-54
2022/10/28 10:23:28;;;;;;;26.33;14.98;;;;;;;13.38;100.00;100144.44;5175094;27;20133;-54
2022/10/28 10:25:58;;;;;;;32.15;14.52;;;;;;;13.45;100.00;100143.78;5175088;27;20050;-55
2022/10/28 10:28:26;;;;;;;28.27;14.63;;;;;;;13.44;100.00;100147.72;5174794;27;20053;-56
2022/10/28 10:30:55;;;;;;;33.83;15.73;;;;;;;13.26;100.00;100174.03;5174783;27;20050;-55
2022/10/28 10:33:24;;;;;;;29.42;15.40;;;;;;;13.30;100.00;100181.25;5175045;27;20049;-53
2022/10/28 10:35:57;;;;;;;27.27;15.27;;;;;;;13.24;100.00;100209.38;5174827;27;21319;-55
2022/10/28 10:38:24;;;;;;;37.45;16.30;;;;;;;13.37;100.00;100205.41;5174727;27;20058;-54
2022/10/28 10:40:51;;;;;;;27.90;15.95;;;;;;;13.29;100.00;100179.63;5174939;27;20046;-52
2022/10/28 10:43:24;;;;;;;27.13;15.80;;;;;;;13.28;100.00;100172.53;5174480;27;20572;-53
2022/10/28 10:46:00;;;;;;;31.48;15.85;;;;;;;13.35;100.00;100186.47;5175004;27;20462;-51
2022/10/28 10:48:27;;;;;;;28.13;15.65;;;;;;;13.25;100.00;100186.22;5174575;27;20054;-51
2022/10/28 10:50:55;;;;;;;28.63;17.25;;;;;;;13.24;100.00;100212.97;5174390;27;20046;-53
2022/10/28 10:53:25;;;;;;;31.45;16.67;;;;;;;13.34;100.00;100219.88;5174514;27;20536;-56
2022/10/28 10:55:54;;;;;;;29.65;15.55;;;;;;;13.47;100.00;100223.31;5174298;27;20405;-54
2022/10/28 10:58:23;;;;;;;26.20;14.80;;;;;;;13.40;100.00;100226.72;5174156;27;20046;-54
2022/10/28 11:00:51;;;;;;;33.90;16.45;;;;;;;13.56;100.00;100215.66;5174243;27;20149;-56
2022/10/28 11:03:20;;;;;;;33.30;15.57;;;;;;;13.51;100.00;100197.44;5174534;27;20095;-56
2022/10/28 11:05:49;;;;;;;35.47;15.52;;;;;;;13.58;100.00;100192.09;5173426;27;20053;-52
2022/10/28 11:08:33;;;;;;;30.92;13.95;;;;;;;13.78;100.00;100184.66;5174394;27;20058;-56
2022/10/28 11:11:12;;;;;;;26.98;14.02;;;;;;;13.77;100.00;100157.47;5174150;27;20133;-54
2022/10/28 11:13:40;;;;;;;32.20;15.27;;;;;;;13.93;100.00;100169.22;5174018;27;20042;-57